sensor_id;sensor_type;location;lat;lon;timestamp;temperature;humidity
35531;DHT22;21637;53.352;-6.356;2022-11-15T00:00:52;12.20;99.90
35531;DHT22;21637;53.352;-6.356;2022-11-15T00:03:19;12.20;99.90
35531;DHT22;21637;53.352;-6.356;2022-11-15T00:05:45;12.20;99.90
35531;DHT22;21637;53.352;-6.356;2022-11-15T00:08:10;12.20;99.90
35531;DHT22;21637;53.352;-6.356;2022-11-15T00:10:36;12.20;99.90
35531;DHT22;21637;53.352;-6.356;2022-11-15T00:13:09;12.20;99.90
35531;DHT22;21637;53.352;-6.356;2022-11-15T00:15:38;12.20;99.90
35531;DHT22;21637;53.352;-6.356;2022-11-15T00:18:04;12.20;99.90
35531;DHT22;21637;53.352;-6.356;2022-11-15T00:20:30;12.20;99.90
35531;DHT22;21637;53.352;-6.356;2022-11-15T00:22:56;12.20;99.90
35531;DHT22;21637;53.352;-6.356;2022-11-15T00:25:22;12.20;99.90
35531;DHT22;21637;53.352;-6.356;2022-11-15T00:27:47;12.30;99.90
35531;DHT22;21637;53.352;-6.356;2022-11-15T00:30:13;12.30;99.90
35531;DHT22;21637;53.352;-6.356;2022-11-15T00:32:38;12.30;99.90
35531;DHT22;21637;53.352;-6.356;2022-11-15T00:35:04;12.40;99.90
35531;DHT22;21637;53.352;-6.356;2022-11-15T00:37:30;12.40;99.90
35531;DHT22;21637;53.352;-6.356;2022-11-15T00:39:55;12.40;99.90
35531;DHT22;21637;53.352;-6.356;2022-11-15T00:42:21;12.40;99.90
35531;DHT22;21637;53.352;-6.356;2022-11-15T00:44:46;12.40;99.90
35531;DHT22;21637;53.352;-6.356;2022-11-15T00:47:12;12.40;99.90
35531;DHT22;21637;53.352;-6.356;2022-11-15T00:49:38;12.40;99.90
35531;DHT22;21637;53.352;-6.356;2022-11-15T00:52:03;12.50;99.90
35531;DHT22;21637;53.352;-6.356;2022-11-15T00:54:29;12.50;99.90
35531;DHT22;21637;53.352;-6.356;2022-11-15T00:56:54;12.50;99.90
35531;DHT22;21637;53.352;-6.356;2022-11-15T00:59:20;12.50;99.90
35531;DHT22;21637;53.352;-6.356;2022-11-15T01:01:45;12.50;99.90
35531;DHT22;21637;53.352;-6.356;2022-11-15T01:04:11;12.60;99.90
35531;DHT22;21637;53.352;-6.356;2022-11-15T01:06:36;12.60;99.90
35531;DHT22;21637;53.352;-6.356;2022-11-15T01:09:02;12.60;99.90
35531;DHT22;21637;53.352;-6.356;2022-11-15T01:11:28;12.60;99.90
35531;DHT22;21637;53.352;-6.356;2022-11-15T01:13:54;12.60;99.90
35531;DHT22;21637;53.352;-6.356;2022-11-15T01:16:19;12.60;99.90
35531;DHT22;21637;53.352;-6.356;2022-11-15T01:18:45;12.70;99.90
35531;DHT22;21637;53.352;-6.356;2022-11-15T01:21:15;12.70;99.90
35531;DHT22;21637;53.352;-6.356;2022-11-15T01:23:41;12.70;99.90
35531;DHT22;21637;53.352;-6.356;2022-11-15T01:26:07;12.80;99.90
35531;DHT22;21637;53.352;-6.356;2022-11-15T01:28:35;12.80;99.90
35531;DHT22;21637;53.352;-6.356;2022-11-15T01:31:01;12.80;99.90
35531;DHT22;21637;53.352;-6.356;2022-11-15T01:33:28;12.80;99.90
35531;DHT22;21637;53.352;-6.356;2022-11-15T01:35:53;12.80;99.90
35531;DHT22;21637;53.352;-6.356;2022-11-15T01:38:19;12.80;99.90
35531;DHT22;21637;53.352;-6.356;2022-11-15T01:40:45;12.80;99.90
35531;DHT22;21637;53.352;-6.356;2022-11-15T01:45:46;12.90;99.90
35531;DHT22;21637;53.352;-6.356;2022-11-15T01:48:15;12.90;99.90
35531;DHT22;21637;53.352;-6.356;2022-11-15T01:50:41;12.90;99.90
35531;DHT22;21637;53.352;-6.356;2022-11-15T01:53:06;12.90;99.90
35531;DHT22;21637;53.352;-6.356;2022-11-15T01:55:32;12.90;99.90
35531;DHT22;21637;53.352;-6.356;2022-11-15T01:57:59;13.00;99.90
35531;DHT22;21637;53.352;-6.356;2022-11-15T02:00:25;12.80;99.90
35531;DHT22;21637;53.352;-6.356;2022-11-15T02:02:50;12.50;99.90
35531;DHT22;21637;53.352;-6.356;2022-11-15T02:05:17;12.20;99.90
35531;DHT22;21637;53.352;-6.356;2022-11-15T02:07:43;12.00;99.90
35531;DHT22;21637;53.352;-6.356;2022-11-15T02:10:16;11.70;99.90
35531;DHT22;21637;53.352;-6.356;2022-11-15T02:12:42;11.50;99.90
35531;DHT22;21637;53.352;-6.356;2022-11-15T02:15:08;11.30;99.90
35531;DHT22;21637;53.352;-6.356;2022-11-15T02:20:15;11.00;99.90
35531;DHT22;21637;53.352;-6.356;2022-11-15T02:23:09;10.80;99.90
35531;DHT22;21637;53.352;-6.356;2022-11-15T02:30:47;10.50;99.90
35531;DHT22;21637;53.352;-6.356;2022-11-15T02:36:03;10.40;99.90
35531;DHT22;21637;53.352;-6.356;2022-11-15T02:38:34;10.30;99.90
35531;DHT22;21637;53.352;-6.356;2022-11-15T02:41:04;10.30;99.90
35531;DHT22;21637;53.352;-6.356;2022-11-15T02:43:36;10.30;99.90
35531;DHT22;21637;53.352;-6.356;2022-11-15T02:49:24;10.20;99.90
35531;DHT22;21637;53.352;-6.356;2022-11-15T02:51:50;10.20;99.90
35531;DHT22;21637;53.352;-6.356;2022-11-15T02:54:19;10.20;99.90
35531;DHT22;21637;53.352;-6.356;2022-11-15T02:56:46;10.20;99.90
35531;DHT22;21637;53.352;-6.356;2022-11-15T03:02:18;10.10;99.90
35531;DHT22;21637;53.352;-6.356;2022-11-15T03:09:48;10.20;99.90
35531;DHT22;21637;53.352;-6.356;2022-11-15T03:15:14;10.10;99.90
35531;DHT22;21637;53.352;-6.356;2022-11-15T03:20:18;10.10;99.90
35531;DHT22;21637;53.352;-6.356;2022-11-15T03:22:44;10.00;99.90
35531;DHT22;21637;53.352;-6.356;2022-11-15T03:25:13;10.00;99.90
35531;DHT22;21637;53.352;-6.356;2022-11-15T03:27:42;9.90;99.90
35531;DHT22;21637;53.352;-6.356;2022-11-15T03:30:09;9.90;99.90
35531;DHT22;21637;53.352;-6.356;2022-11-15T03:32:39;9.90;99.90
35531;DHT22;21637;53.352;-6.356;2022-11-15T03:35:40;9.80;99.90
35531;DHT22;21637;53.352;-6.356;2022-11-15T03:40:35;9.90;99.90
35531;DHT22;21637;53.352;-6.356;2022-11-15T03:45:28;9.70;99.90
35531;DHT22;21637;53.352;-6.356;2022-11-15T03:48:02;9.70;99.90
35531;DHT22;21637;53.352;-6.356;2022-11-15T03:50:28;9.70;99.90
35531;DHT22;21637;53.352;-6.356;2022-11-15T03:52:54;9.60;99.90
35531;DHT22;21637;53.352;-6.356;2022-11-15T03:55:20;9.60;99.90
35531;DHT22;21637;53.352;-6.356;2022-11-15T03:57:47;9.50;99.90
35531;DHT22;21637;53.352;-6.356;2022-11-15T04:00:13;9.50;99.90
35531;DHT22;21637;53.352;-6.356;2022-11-15T04:02:39;9.50;99.90
35531;DHT22;21637;53.352;-6.356;2022-11-15T04:05:05;9.50;99.90
35531;DHT22;21637;53.352;-6.356;2022-11-15T04:07:30;9.60;99.90
35531;DHT22;21637;53.352;-6.356;2022-11-15T04:09:56;9.50;99.90
35531;DHT22;21637;53.352;-6.356;2022-11-15T04:12:31;9.50;99.90
35531;DHT22;21637;53.352;-6.356;2022-11-15T04:15:00;9.50;99.90
35531;DHT22;21637;53.352;-6.356;2022-11-15T04:17:42;9.40;99.90
35531;DHT22;21637;53.352;-6.356;2022-11-15T04:20:09;9.40;99.90
35531;DHT22;21637;53.352;-6.356;2022-11-15T04:22:57;9.40;99.90
35531;DHT22;21637;53.352;-6.356;2022-11-15T04:25:42;9.40;99.90
35531;DHT22;21637;53.352;-6.356;2022-11-15T04:28:08;9.40;99.90
35531;DHT22;21637;53.352;-6.356;2022-11-15T04:30:34;9.30;99.90
35531;DHT22;21637;53.352;-6.356;2022-11-15T04:33:00;9.20;99.90
35531;DHT22;21637;53.352;-6.356;2022-11-15T04:35:26;9.30;99.90
35531;DHT22;21637;53.352;-6.356;2022-11-15T04:37:51;9.20;99.90
35531;DHT22;21637;53.352;-6.356;2022-11-15T04:40:17;9.20;99.90
35531;DHT22;21637;53.352;-6.356;2022-11-15T04:42:42;9.20;99.90
35531;DHT22;21637;53.352;-6.356;2022-11-15T04:45:08;9.20;99.90
35531;DHT22;21637;53.352;-6.356;2022-11-15T04:47:34;9.20;99.90
35531;DHT22;21637;53.352;-6.356;2022-11-15T04:50:00;9.10;99.90
35531;DHT22;21637;53.352;-6.356;2022-11-15T04:52:25;9.20;99.90
35531;DHT22;21637;53.352;-6.356;2022-11-15T04:54:51;9.10;99.90
35531;DHT22;21637;53.352;-6.356;2022-11-15T04:57:17;9.20;99.90
35531;DHT22;21637;53.352;-6.356;2022-11-15T04:59:43;9.10;99.90
35531;DHT22;21637;53.352;-6.356;2022-11-15T05:02:08;9.10;99.90
35531;DHT22;21637;53.352;-6.356;2022-11-15T05:04:34;9.10;99.90
35531;DHT22;21637;53.352;-6.356;2022-11-15T05:06:59;9.10;99.90
35531;DHT22;21637;53.352;-6.356;2022-11-15T05:09:25;9.20;99.90
35531;DHT22;21637;53.352;-6.356;2022-11-15T05:11:53;9.10;99.90
35531;DHT22;21637;53.352;-6.356;2022-11-15T05:14:18;9.20;99.90
35531;DHT22;21637;53.352;-6.356;2022-11-15T05:16:44;9.10;99.90
35531;DHT22;21637;53.352;-6.356;2022-11-15T05:19:09;9.10;99.90
35531;DHT22;21637;53.352;-6.356;2022-11-15T05:21:35;9.10;99.90
35531;DHT22;21637;53.352;-6.356;2022-11-15T05:24:01;9.10;99.90
35531;DHT22;21637;53.352;-6.356;2022-11-15T05:26:27;9.10;99.90
35531;DHT22;21637;53.352;-6.356;2022-11-15T05:28:53;9.10;99.90
35531;DHT22;21637;53.352;-6.356;2022-11-15T05:31:19;9.10;99.90
35531;DHT22;21637;53.352;-6.356;2022-11-15T05:33:45;9.10;99.90
35531;DHT22;21637;53.352;-6.356;2022-11-15T05:36:16;9.00;99.90
35531;DHT22;21637;53.352;-6.356;2022-11-15T05:38:43;9.00;99.90
35531;DHT22;21637;53.352;-6.356;2022-11-15T05:41:09;9.10;99.90
35531;DHT22;21637;53.352;-6.356;2022-11-15T05:43:35;9.10;99.90
35531;DHT22;21637;53.352;-6.356;2022-11-15T05:46:02;9.00;99.90
35531;DHT22;21637;53.352;-6.356;2022-11-15T05:48:29;9.00;99.90
35531;DHT22;21637;53.352;-6.356;2022-11-15T05:50:55;9.00;99.90
35531;DHT22;21637;53.352;-6.356;2022-11-15T05:53:21;9.00;99.90
35531;DHT22;21637;53.352;-6.356;2022-11-15T05:55:47;8.90;99.90
35531;DHT22;21637;53.352;-6.356;2022-11-15T05:58:13;8.90;99.90
35531;DHT22;21637;53.352;-6.356;2022-11-15T06:00:39;8.90;99.90
35531;DHT22;21637;53.352;-6.356;2022-11-15T06:03:04;8.90;99.90
35531;DHT22;21637;53.352;-6.356;2022-11-15T06:05:30;8.90;99.90
35531;DHT22;21637;53.352;-6.356;2022-11-15T06:07:58;8.90;99.90
35531;DHT22;21637;53.352;-6.356;2022-11-15T06:10:24;8.90;99.90
35531;DHT22;21637;53.352;-6.356;2022-11-15T06:13:03;8.80;99.90
35531;DHT22;21637;53.352;-6.356;2022-11-15T06:15:29;8.80;99.90
35531;DHT22;21637;53.352;-6.356;2022-11-15T06:17:57;8.90;99.90
35531;DHT22;21637;53.352;-6.356;2022-11-15T06:20:23;8.90;99.90
35531;DHT22;21637;53.352;-6.356;2022-11-15T06:22:49;8.80;99.90
35531;DHT22;21637;53.352;-6.356;2022-11-15T06:25:15;8.80;99.90
35531;DHT22;21637;53.352;-6.356;2022-11-15T06:27:40;8.90;99.90
35531;DHT22;21637;53.352;-6.356;2022-11-15T06:30:06;8.80;99.90
35531;DHT22;21637;53.352;-6.356;2022-11-15T06:32:31;8.80;99.90
35531;DHT22;21637;53.352;-6.356;2022-11-15T06:34:57;8.70;99.90
35531;DHT22;21637;53.352;-6.356;2022-11-15T06:37:23;8.70;99.90
35531;DHT22;21637;53.352;-6.356;2022-11-15T06:39:48;8.70;99.90
35531;DHT22;21637;53.352;-6.356;2022-11-15T06:42:14;8.70;99.90
35531;DHT22;21637;53.352;-6.356;2022-11-15T06:44:39;8.60;99.90
35531;DHT22;21637;53.352;-6.356;2022-11-15T06:47:05;8.60;99.90
35531;DHT22;21637;53.352;-6.356;2022-11-15T06:49:30;8.60;99.90
35531;DHT22;21637;53.352;-6.356;2022-11-15T06:51:56;8.60;99.90
35531;DHT22;21637;53.352;-6.356;2022-11-15T06:54:21;8.60;99.90
35531;DHT22;21637;53.352;-6.356;2022-11-15T06:56:47;8.50;99.90
35531;DHT22;21637;53.352;-6.356;2022-11-15T06:59:13;8.50;99.90
35531;DHT22;21637;53.352;-6.356;2022-11-15T07:01:38;8.50;99.90
35531;DHT22;21637;53.352;-6.356;2022-11-15T07:04:04;8.50;99.90
35531;DHT22;21637;53.352;-6.356;2022-11-15T07:06:29;8.50;99.90
35531;DHT22;21637;53.352;-6.356;2022-11-15T07:08:55;8.50;99.90
35531;DHT22;21637;53.352;-6.356;2022-11-15T07:11:20;8.50;99.90
35531;DHT22;21637;53.352;-6.356;2022-11-15T07:13:46;8.50;99.90
35531;DHT22;21637;53.352;-6.356;2022-11-15T07:16:11;8.40;99.90
35531;DHT22;21637;53.352;-6.356;2022-11-15T07:18:37;8.40;99.90
35531;DHT22;21637;53.352;-6.356;2022-11-15T07:21:04;8.40;99.90
35531;DHT22;21637;53.352;-6.356;2022-11-15T07:23:30;8.40;99.90
35531;DHT22;21637;53.352;-6.356;2022-11-15T07:25:56;8.40;99.90
35531;DHT22;21637;53.352;-6.356;2022-11-15T07:28:22;8.40;99.90
35531;DHT22;21637;53.352;-6.356;2022-11-15T07:30:48;8.40;99.90
35531;DHT22;21637;53.352;-6.356;2022-11-15T07:33:13;8.40;99.90
35531;DHT22;21637;53.352;-6.356;2022-11-15T07:35:39;8.40;99.90
35531;DHT22;21637;53.352;-6.356;2022-11-15T07:38:04;8.30;99.90
35531;DHT22;21637;53.352;-6.356;2022-11-15T07:40:30;8.30;99.90
35531;DHT22;21637;53.352;-6.356;2022-11-15T07:43:03;8.30;99.90
35531;DHT22;21637;53.352;-6.356;2022-11-15T07:45:29;8.30;99.90
35531;DHT22;21637;53.352;-6.356;2022-11-15T07:47:55;8.20;99.90
35531;DHT22;21637;53.352;-6.356;2022-11-15T07:50:22;8.10;99.90
35531;DHT22;21637;53.352;-6.356;2022-11-15T07:52:52;8.10;99.90
35531;DHT22;21637;53.352;-6.356;2022-11-15T07:55:18;8.00;99.90
35531;DHT22;21637;53.352;-6.356;2022-11-15T07:57:43;8.00;99.90
35531;DHT22;21637;53.352;-6.356;2022-11-15T08:00:09;8.00;99.90
35531;DHT22;21637;53.352;-6.356;2022-11-15T08:02:35;7.90;99.90
35531;DHT22;21637;53.352;-6.356;2022-11-15T08:05:00;7.90;99.90
35531;DHT22;21637;53.352;-6.356;2022-11-15T08:07:28;7.80;99.90
35531;DHT22;21637;53.352;-6.356;2022-11-15T08:09:53;7.70;99.90
35531;DHT22;21637;53.352;-6.356;2022-11-15T08:12:21;7.70;99.90
35531;DHT22;21637;53.352;-6.356;2022-11-15T08:14:46;7.70;99.90
35531;DHT22;21637;53.352;-6.356;2022-11-15T08:17:13;7.60;99.90
35531;DHT22;21637;53.352;-6.356;2022-11-15T08:19:39;7.60;99.90
35531;DHT22;21637;53.352;-6.356;2022-11-15T08:22:04;7.60;99.90
35531;DHT22;21637;53.352;-6.356;2022-11-15T08:24:30;7.50;99.90
35531;DHT22;21637;53.352;-6.356;2022-11-15T08:26:55;7.50;99.90
35531;DHT22;21637;53.352;-6.356;2022-11-15T08:29:21;7.50;99.90
35531;DHT22;21637;53.352;-6.356;2022-11-15T08:31:47;7.50;99.90
35531;DHT22;21637;53.352;-6.356;2022-11-15T08:34:12;7.40;99.90
35531;DHT22;21637;53.352;-6.356;2022-11-15T08:36:38;7.40;99.90
35531;DHT22;21637;53.352;-6.356;2022-11-15T08:39:03;7.30;99.90
35531;DHT22;21637;53.352;-6.356;2022-11-15T08:41:33;7.40;99.90
35531;DHT22;21637;53.352;-6.356;2022-11-15T08:44:01;7.40;99.90
35531;DHT22;21637;53.352;-6.356;2022-11-15T08:46:26;7.50;99.90
35531;DHT22;21637;53.352;-6.356;2022-11-15T08:48:52;7.60;99.90
35531;DHT22;21637;53.352;-6.356;2022-11-15T08:51:17;7.70;99.90
35531;DHT22;21637;53.352;-6.356;2022-11-15T08:53:43;7.70;99.90
35531;DHT22;21637;53.352;-6.356;2022-11-15T08:56:09;7.80;99.90
35531;DHT22;21637;53.352;-6.356;2022-11-15T08:58:35;7.90;99.90
35531;DHT22;21637;53.352;-6.356;2022-11-15T09:01:01;8.00;99.90
35531;DHT22;21637;53.352;-6.356;2022-11-15T09:03:26;8.10;99.90
35531;DHT22;21637;53.352;-6.356;2022-11-15T09:05:55;8.10;99.90
35531;DHT22;21637;53.352;-6.356;2022-11-15T09:08:22;8.00;99.90
35531;DHT22;21637;53.352;-6.356;2022-11-15T09:10:48;8.00;99.90
35531;DHT22;21637;53.352;-6.356;2022-11-15T09:13:13;7.90;99.90
35531;DHT22;21637;53.352;-6.356;2022-11-15T09:15:39;7.90;99.90
35531;DHT22;21637;53.352;-6.356;2022-11-15T09:18:05;7.90;99.90
35531;DHT22;21637;53.352;-6.356;2022-11-15T09:20:30;7.80;99.90
35531;DHT22;21637;53.352;-6.356;2022-11-15T09:23:00;7.80;99.90
35531;DHT22;21637;53.352;-6.356;2022-11-15T09:25:26;7.80;99.90
35531;DHT22;21637;53.352;-6.356;2022-11-15T09:27:52;7.70;99.90
35531;DHT22;21637;53.352;-6.356;2022-11-15T09:30:17;7.70;99.90
35531;DHT22;21637;53.352;-6.356;2022-11-15T09:32:43;7.80;99.90
35531;DHT22;21637;53.352;-6.356;2022-11-15T09:35:08;7.70;99.90
35531;DHT22;21637;53.352;-6.356;2022-11-15T09:37:34;7.60;99.90
35531;DHT22;21637;53.352;-6.356;2022-11-15T09:39:59;7.60;99.90
35531;DHT22;21637;53.352;-6.356;2022-11-15T09:42:30;7.60;99.90
35531;DHT22;21637;53.352;-6.356;2022-11-15T09:45:06;7.60;99.90
35531;DHT22;21637;53.352;-6.356;2022-11-15T09:50:14;7.70;99.90
35531;DHT22;21637;53.352;-6.356;2022-11-15T09:52:41;7.80;99.90
35531;DHT22;21637;53.352;-6.356;2022-11-15T09:55:11;7.90;99.90
35531;DHT22;21637;53.352;-6.356;2022-11-15T10:02:46;8.00;99.90
35531;DHT22;21637;53.352;-6.356;2022-11-15T10:05:18;8.10;99.90
35531;DHT22;21637;53.352;-6.356;2022-11-15T10:12:38;8.40;99.90
35531;DHT22;21637;53.352;-6.356;2022-11-15T10:15:12;8.60;99.90
35531;DHT22;21637;53.352;-6.356;2022-11-15T10:25:31;9.20;99.90
35531;DHT22;21637;53.352;-6.356;2022-11-15T10:28:01;9.30;99.90
35531;DHT22;21637;53.352;-6.356;2022-11-15T10:30:34;9.40;99.90
35531;DHT22;21637;53.352;-6.356;2022-11-15T10:33:08;9.50;99.90
35531;DHT22;21637;53.352;-6.356;2022-11-15T10:35:35;9.50;99.90
35531;DHT22;21637;53.352;-6.356;2022-11-15T10:38:05;9.50;99.90
35531;DHT22;21637;53.352;-6.356;2022-11-15T10:40:31;9.50;99.90
35531;DHT22;21637;53.352;-6.356;2022-11-15T10:43:13;9.40;99.90
35531;DHT22;21637;53.352;-6.356;2022-11-15T10:45:39;9.40;99.90
35531;DHT22;21637;53.352;-6.356;2022-11-15T10:48:18;9.40;99.90
35531;DHT22;21637;53.352;-6.356;2022-11-15T10:50:45;9.40;99.90
35531;DHT22;21637;53.352;-6.356;2022-11-15T10:53:16;9.40;99.90
35531;DHT22;21637;53.352;-6.356;2022-11-15T10:55:42;9.40;99.90
35531;DHT22;21637;53.352;-6.356;2022-11-15T11:00:52;9.50;99.90
35531;DHT22;21637;53.352;-6.356;2022-11-15T11:03:28;9.50;99.90
35531;DHT22;21637;53.352;-6.356;2022-11-15T11:06:17;9.50;99.90
35531;DHT22;21637;53.352;-6.356;2022-11-15T11:08:44;9.50;99.90
35531;DHT22;21637;53.352;-6.356;2022-11-15T11:11:18;9.60;99.90
35531;DHT22;21637;53.352;-6.356;2022-11-15T11:13:43;9.60;99.90
35531;DHT22;21637;53.352;-6.356;2022-11-15T11:18:38;9.60;99.90
35531;DHT22;21637;53.352;-6.356;2022-11-15T11:21:09;9.70;99.90
35531;DHT22;21637;53.352;-6.356;2022-11-15T11:23:41;9.70;99.90
35531;DHT22;21637;53.352;-6.356;2022-11-15T11:36:27;9.70;99.90
35531;DHT22;21637;53.352;-6.356;2022-11-15T11:38:58;9.70;99.90
35531;DHT22;21637;53.352;-6.356;2022-11-15T11:49:10;9.80;99.90
35531;DHT22;21637;53.352;-6.356;2022-11-15T11:51:38;9.80;99.90
35531;DHT22;21637;53.352;-6.356;2022-11-15T11:54:09;9.80;99.90
35531;DHT22;21637;53.352;-6.356;2022-11-15T11:56:37;9.80;99.90
35531;DHT22;21637;53.352;-6.356;2022-11-15T11:59:10;9.90;99.90
35531;DHT22;21637;53.352;-6.356;2022-11-15T12:01:40;9.90;99.90
35531;DHT22;21637;53.352;-6.356;2022-11-15T12:09:28;9.90;99.90
35531;DHT22;21637;53.352;-6.356;2022-11-15T12:14:27;9.90;99.90
35531;DHT22;21637;53.352;-6.356;2022-11-15T12:16:54;10.00;99.90
35531;DHT22;21637;53.352;-6.356;2022-11-15T12:19:20;10.00;99.90
35531;DHT22;21637;53.352;-6.356;2022-11-15T12:22:00;10.00;99.90
35531;DHT22;21637;53.352;-6.356;2022-11-15T12:24:34;10.00;99.90
35531;DHT22;21637;53.352;-6.356;2022-11-15T12:27:06;10.00;99.90
35531;DHT22;21637;53.352;-6.356;2022-11-15T12:31:58;10.00;99.90
35531;DHT22;21637;53.352;-6.356;2022-11-15T12:34:29;10.10;99.90
35531;DHT22;21637;53.352;-6.356;2022-11-15T12:36:59;10.10;99.90
35531;DHT22;21637;53.352;-6.356;2022-11-15T13:02:22;10.30;99.90
35531;DHT22;21637;53.352;-6.356;2022-11-15T13:04:49;10.30;99.90
35531;DHT22;21637;53.352;-6.356;2022-11-15T13:09:59;10.40;99.90
35531;DHT22;21637;53.352;-6.356;2022-11-15T13:17:20;10.50;99.90
35531;DHT22;21637;53.352;-6.356;2022-11-15T13:19:58;10.50;99.90
35531;DHT22;21637;53.352;-6.356;2022-11-15T13:22:25;10.50;99.90
35531;DHT22;21637;53.352;-6.356;2022-11-15T13:27:45;10.50;99.90
35531;DHT22;21637;53.352;-6.356;2022-11-15T13:30:16;10.50;99.90
35531;DHT22;21637;53.352;-6.356;2022-11-15T13:32:44;10.40;99.90
35531;DHT22;21637;53.352;-6.356;2022-11-15T13:35:09;10.40;99.90
35531;DHT22;21637;53.352;-6.356;2022-11-15T13:37:40;10.40;99.90
35531;DHT22;21637;53.352;-6.356;2022-11-15T13:40:10;10.40;99.90
35531;DHT22;21637;53.352;-6.356;2022-11-15T13:42:36;10.40;99.90
35531;DHT22;21637;53.352;-6.356;2022-11-15T13:45:03;10.40;99.90
35531;DHT22;21637;53.352;-6.356;2022-11-15T13:47:30;10.40;99.90
35531;DHT22;21637;53.352;-6.356;2022-11-15T13:49:57;10.50;99.90
35531;DHT22;21637;53.352;-6.356;2022-11-15T13:52:22;10.50;99.90
35531;DHT22;21637;53.352;-6.356;2022-11-15T13:55:00;10.50;99.90
35531;DHT22;21637;53.352;-6.356;2022-11-15T13:57:30;10.50;99.90
35531;DHT22;21637;53.352;-6.356;2022-11-15T14:00:02;10.50;99.90
35531;DHT22;21637;53.352;-6.356;2022-11-15T14:02:30;10.50;99.90
35531;DHT22;21637;53.352;-6.356;2022-11-15T14:04:57;10.40;99.90
35531;DHT22;21637;53.352;-6.356;2022-11-15T14:07:23;10.40;99.90
35531;DHT22;21637;53.352;-6.356;2022-11-15T14:09:49;10.40;99.90
35531;DHT22;21637;53.352;-6.356;2022-11-15T14:12:31;10.40;99.90
35531;DHT22;21637;53.352;-6.356;2022-11-15T14:15:01;10.50;99.90
35531;DHT22;21637;53.352;-6.356;2022-11-15T14:19:56;10.50;99.90
35531;DHT22;21637;53.352;-6.356;2022-11-15T14:22:22;10.40;99.90
35531;DHT22;21637;53.352;-6.356;2022-11-15T14:27:35;10.40;99.90
35531;DHT22;21637;53.352;-6.356;2022-11-15T14:30:00;10.40;99.90
35531;DHT22;21637;53.352;-6.356;2022-11-15T14:32:27;10.40;99.90
35531;DHT22;21637;53.352;-6.356;2022-11-15T14:34:54;10.40;99.90
35531;DHT22;21637;53.352;-6.356;2022-11-15T14:37:27;10.40;99.90
35531;DHT22;21637;53.352;-6.356;2022-11-15T14:39:53;10.30;99.90
35531;DHT22;21637;53.352;-6.356;2022-11-15T14:42:19;10.30;99.90
35531;DHT22;21637;53.352;-6.356;2022-11-15T14:44:45;10.30;99.90
35531;DHT22;21637;53.352;-6.356;2022-11-15T14:47:11;10.30;99.90
35531;DHT22;21637;53.352;-6.356;2022-11-15T14:49:36;10.30;99.90
35531;DHT22;21637;53.352;-6.356;2022-11-15T14:52:02;10.30;99.90
35531;DHT22;21637;53.352;-6.356;2022-11-15T14:54:30;10.20;99.90
35531;DHT22;21637;53.352;-6.356;2022-11-15T14:56:55;10.20;99.90
35531;DHT22;21637;53.352;-6.356;2022-11-15T14:59:21;10.20;99.90
35531;DHT22;21637;53.352;-6.356;2022-11-15T15:01:47;10.20;99.90
35531;DHT22;21637;53.352;-6.356;2022-11-15T15:04:12;10.20;99.90
35531;DHT22;21637;53.352;-6.356;2022-11-15T15:06:38;10.20;99.90
35531;DHT22;21637;53.352;-6.356;2022-11-15T15:09:03;10.20;99.90
35531;DHT22;21637;53.352;-6.356;2022-11-15T15:11:31;10.10;99.90
35531;DHT22;21637;53.352;-6.356;2022-11-15T15:13:57;10.10;99.90
35531;DHT22;21637;53.352;-6.356;2022-11-15T15:16:25;10.10;99.90
35531;DHT22;21637;53.352;-6.356;2022-11-15T15:18:51;10.10;99.90
35531;DHT22;21637;53.352;-6.356;2022-11-15T15:21:21;10.10;99.90
35531;DHT22;21637;53.352;-6.356;2022-11-15T15:23:47;10.10;99.90
35531;DHT22;21637;53.352;-6.356;2022-11-15T15:26:12;10.10;99.90
35531;DHT22;21637;53.352;-6.356;2022-11-15T15:28:38;10.10;99.90
35531;DHT22;21637;53.352;-6.356;2022-11-15T15:31:04;10.00;99.90
35531;DHT22;21637;53.352;-6.356;2022-11-15T15:33:30;10.10;99.90
35531;DHT22;21637;53.352;-6.356;2022-11-15T15:35:57;10.00;99.90
35531;DHT22;21637;53.352;-6.356;2022-11-15T15:38:23;10.00;99.90
35531;DHT22;21637;53.352;-6.356;2022-11-15T15:40:48;10.00;99.90
35531;DHT22;21637;53.352;-6.356;2022-11-15T15:43:14;10.00;99.90
35531;DHT22;21637;53.352;-6.356;2022-11-15T15:45:40;9.90;99.90
35531;DHT22;21637;53.352;-6.356;2022-11-15T15:48:09;9.90;99.90
35531;DHT22;21637;53.352;-6.356;2022-11-15T15:50:35;9.90;99.90
35531;DHT22;21637;53.352;-6.356;2022-11-15T15:53:02;9.80;99.90
35531;DHT22;21637;53.352;-6.356;2022-11-15T15:55:28;9.80;99.90
35531;DHT22;21637;53.352;-6.356;2022-11-15T15:57:54;9.80;99.90
35531;DHT22;21637;53.352;-6.356;2022-11-15T16:00:20;9.70;99.90
35531;DHT22;21637;53.352;-6.356;2022-11-15T16:02:46;9.60;99.90
35531;DHT22;21637;53.352;-6.356;2022-11-15T16:05:12;9.60;99.90
35531;DHT22;21637;53.352;-6.356;2022-11-15T16:07:38;9.50;99.90
35531;DHT22;21637;53.352;-6.356;2022-11-15T16:12:42;9.40;99.90
35531;DHT22;21637;53.352;-6.356;2022-11-15T16:15:08;9.40;99.90
35531;DHT22;21637;53.352;-6.356;2022-11-15T16:17:38;9.30;99.90
35531;DHT22;21637;53.352;-6.356;2022-11-15T16:20:04;9.30;99.90
35531;DHT22;21637;53.352;-6.356;2022-11-15T16:22:29;9.10;99.90
35531;DHT22;21637;53.352;-6.356;2022-11-15T16:24:55;9.10;99.90
35531;DHT22;21637;53.352;-6.356;2022-11-15T16:27:21;9.00;99.90
35531;DHT22;21637;53.352;-6.356;2022-11-15T16:29:47;9.00;99.90
35531;DHT22;21637;53.352;-6.356;2022-11-15T16:32:14;8.90;99.90
35531;DHT22;21637;53.352;-6.356;2022-11-15T16:34:40;8.80;99.90
35531;DHT22;21637;53.352;-6.356;2022-11-15T16:37:08;8.80;99.90
35531;DHT22;21637;53.352;-6.356;2022-11-15T16:39:36;8.80;99.90
35531;DHT22;21637;53.352;-6.356;2022-11-15T16:42:02;8.70;99.90
35531;DHT22;21637;53.352;-6.356;2022-11-15T16:44:28;8.70;99.90
35531;DHT22;21637;53.352;-6.356;2022-11-15T16:46:53;8.60;99.90
35531;DHT22;21637;53.352;-6.356;2022-11-15T16:49:19;8.60;99.90
35531;DHT22;21637;53.352;-6.356;2022-11-15T16:51:45;8.60;99.90
35531;DHT22;21637;53.352;-6.356;2022-11-15T16:54:12;8.50;99.90
35531;DHT22;21637;53.352;-6.356;2022-11-15T16:56:37;8.50;99.90
35531;DHT22;21637;53.352;-6.356;2022-11-15T16:59:03;8.40;99.90
35531;DHT22;21637;53.352;-6.356;2022-11-15T17:01:30;8.30;99.90
35531;DHT22;21637;53.352;-6.356;2022-11-15T17:03:56;8.20;99.90
35531;DHT22;21637;53.352;-6.356;2022-11-15T17:06:22;8.20;99.90
35531;DHT22;21637;53.352;-6.356;2022-11-15T17:08:48;8.10;99.90
35531;DHT22;21637;53.352;-6.356;2022-11-15T17:11:14;8.10;99.90
35531;DHT22;21637;53.352;-6.356;2022-11-15T17:13:40;8.10;99.90
35531;DHT22;21637;53.352;-6.356;2022-11-15T17:16:07;8.10;99.90
35531;DHT22;21637;53.352;-6.356;2022-11-15T17:18:33;8.10;99.90
35531;DHT22;21637;53.352;-6.356;2022-11-15T17:21:06;8.10;99.90
35531;DHT22;21637;53.352;-6.356;2022-11-15T17:23:32;8.20;99.90
35531;DHT22;21637;53.352;-6.356;2022-11-15T17:26:02;8.20;99.90
35531;DHT22;21637;53.352;-6.356;2022-11-15T17:28:32;8.20;99.90
35531;DHT22;21637;53.352;-6.356;2022-11-15T17:30:58;8.20;99.90
35531;DHT22;21637;53.352;-6.356;2022-11-15T17:33:24;8.10;99.90
35531;DHT22;21637;53.352;-6.356;2022-11-15T17:35:56;8.10;99.90